Williams, Arizona
Current Conditions -  °F | °C
As of 7:57 PM on Tuesday 21 Oct 2014 (Local Time) from KFLG Reporting Station
Clear Clear  
Wind Chill: 45°   Ceiling: Unl
Heat Index: 47°   Visibility: 10mi
Dew Point: 36°   Wind: 5mph
Humidity: 66%   Direction: 220°SW
Pressure: 30.15"   Gusts: NA
Location:  35.25°N, 112.19°W
Report Text: KFLG 220257Z AUTO 22004KT 10SM CLR 08/02 A3015 RMK AO2 SLP155 T00830022 53010 TSNO
Loading
Personal Weather Stations






























Interactive Weather Map
Tropical Storm Tracking
New forecast layout! Learn more

10-Day Weather Forecast

Advertisements
Track Severe Weather on mobile